Terminal Aerodrome Forecast
Issued by NWS

Home | Current Version | Previous Version | Text Only | Print | Product List | Glossary On
Versions: 1 2 3 4 5 6 7 8 9 10 11 12 13 14 15 16 17 18 19 20 21
000
FTUS43 KABR 230500
TAFATY
TAF
KATY 230520Z 2306/2406 05011KT 3SM -SN BR OVC003
      TEMPO 2306/2308 1SM -SN BR
     FM230800 36015KT 1SM -SN BR OVC003
     FM232100 34017G26KT 2SM -SN BLSN OVC005
     FM240100 34015KT P6SM OVC010=

USA.gov is the U.S. government's official web portal to all federal, state and local government web resources and services.